ETD204 OMAA-VABB
Flight info
| Callsign | ETD204 |
|---|---|
| Flight time | N/A |
| Altitude | 39000 |
| Route | KANIP N318 GEVED N881 AMBOS M700 PARAR N571 SUGID KETOR2A |
| Aircraft | A388/J-SADE2E3FGHIJ3J4J5M1RWXY/LB1D1 |
Departure
| Time | 2026-04-28 09:22 |
|---|---|
| Airport | Zayed International Airport (OMAA) |
Arrival
| Time | N/A |
|---|---|
| Airport | Chhatrapati Shivaji Maharaj International Airport (VABB) |
| Time | Latitude | Longitude | Altitude | Speed | Heading |
|---|---|---|---|---|---|
| 2026-04-28 09:01 | 24.44940 | 54.64161 | 94 ft | 0 kts | 34° |
| 2026-04-28 09:06 | 24.44924 | 54.64150 | 96 ft | 4 kts | 34° |
| 2026-04-28 09:06 | 24.44902 | 54.64134 | 92 ft | 4 kts | 32° |
| 2026-04-28 09:07 | 24.44878 | 54.64118 | 94 ft | 4 kts | 29° |
| 2026-04-28 09:07 | 24.44857 | 54.64102 | 92 ft | 4 kts | 55° |
| 2026-04-28 09:07 | 24.44849 | 54.64077 | 94 ft | 4 kts | 103° |
| 2026-04-28 09:07 | 24.44858 | 54.64057 | 95 ft | 0 kts | 135° |
| 2026-04-28 09:12 | 24.44855 | 54.64061 | 97 ft | 2 kts | 135° |
| 2026-04-28 09:12 | 24.44830 | 54.64087 | 95 ft | 7 kts | 135° |
| 2026-04-28 09:13 | 24.44777 | 54.64117 | 98 ft | 11 kts | 158° |
| 2026-04-28 09:13 | 24.44687 | 54.64152 | 96 ft | 16 kts | 162° |
| 2026-04-28 09:13 | 24.44615 | 54.64175 | 94 ft | 8 kts | 172° |
| 2026-04-28 09:13 | 24.44557 | 54.64155 | 97 ft | 10 kts | 227° |
| 2026-04-28 09:14 | 24.44501 | 54.64089 | 98 ft | 13 kts | 226° |
| 2026-04-28 09:14 | 24.44441 | 54.64045 | 95 ft | 10 kts | 188° |
| 2026-04-28 09:14 | 24.44377 | 54.64081 | 94 ft | 13 kts | 131° |
| 2026-04-28 09:14 | 24.44307 | 54.64172 | 96 ft | 18 kts | 130° |
| 2026-04-28 09:15 | 24.44221 | 54.64291 | 97 ft | 22 kts | 128° |
| 2026-04-28 09:15 | 24.44140 | 54.64406 | 96 ft | 18 kts | 128° |
| 2026-04-28 09:15 | 24.44056 | 54.64524 | 96 ft | 21 kts | 128° |
| 2026-04-28 09:15 | 24.43958 | 54.64662 | 95 ft | 24 kts | 128° |
| 2026-04-28 09:16 | 24.43872 | 54.64784 | 93 ft | 18 kts | 128° |
| 2026-04-28 09:16 | 24.43786 | 54.64905 | 93 ft | 22 kts | 128° |
| 2026-04-28 09:16 | 24.43684 | 54.65046 | 93 ft | 25 kts | 128° |
| 2026-04-28 09:16 | 24.43605 | 54.65157 | 96 ft | 18 kts | 128° |
| 2026-04-28 09:17 | 24.43520 | 54.65276 | 96 ft | 22 kts | 128° |
| 2026-04-28 09:17 | 24.43420 | 54.65416 | 96 ft | 25 kts | 128° |
| 2026-04-28 09:17 | 24.43312 | 54.65570 | 96 ft | 21 kts | 127° |
| 2026-04-28 09:17 | 24.43232 | 54.65685 | 96 ft | 21 kts | 128° |
| 2026-04-28 09:18 | 24.43135 | 54.65819 | 95 ft | 24 kts | 128° |
| 2026-04-28 09:18 | 24.43032 | 54.65966 | 95 ft | 23 kts | 128° |
| 2026-04-28 09:18 | 24.42929 | 54.66111 | 94 ft | 25 kts | 129° |
| 2026-04-28 09:18 | 24.42814 | 54.66268 | 96 ft | 28 kts | 128° |
| 2026-04-28 09:19 | 24.42695 | 54.66441 | 96 ft | 29 kts | 125° |
| 2026-04-28 09:19 | 24.42589 | 54.66597 | 93 ft | 25 kts | 128° |
| 2026-04-28 09:19 | 24.42495 | 54.66729 | 96 ft | 16 kts | 128° |
| 2026-04-28 09:19 | 24.42449 | 54.66779 | 94 ft | 8 kts | 169° |
| 2026-04-28 09:20 | 24.42394 | 54.66749 | 92 ft | 12 kts | 222° |
| 2026-04-28 09:20 | 24.42322 | 54.66681 | 87 ft | 15 kts | 217° |
| 2026-04-28 09:20 | 24.42266 | 54.66634 | 68 ft | 7 kts | 218° |
| 2026-04-28 09:20 | 24.42249 | 54.66599 | 72 ft | 3 kts | 288° |
| 2026-04-28 09:21 | 24.42258 | 54.66584 | 69 ft | 0 kts | 308° |
| 2026-04-28 09:21 | 24.42261 | 54.66580 | 67 ft | 8 kts | 308° |
| 2026-04-28 09:21 | 24.42465 | 54.66293 | 82 ft | 86 kts | 308° |
| 2026-04-28 09:21 | 24.42962 | 54.65594 | 71 ft | 142 kts | 308° |
| 2026-04-28 09:22 | 24.43619 | 54.64639 | 228 ft | 164 kts | 308° |
| 2026-04-28 09:22 | 24.44312 | 54.63638 | 646 ft | 167 kts | 308° |
| 2026-04-28 09:22 | 24.45028 | 54.62606 | 956 ft | 172 kts | 310° |
| 2026-04-28 09:22 | 24.45786 | 54.61585 | 1361 ft | 174 kts | 309° |
| 2026-04-28 09:23 | 24.46570 | 54.60512 | 1551 ft | 188 kts | 309° |
| 2026-04-28 09:23 | 24.47419 | 54.59343 | 1668 ft | 205 kts | 309° |
| 2026-04-28 09:23 | 24.48336 | 54.58039 | 1928 ft | 225 kts | 309° |
| 2026-04-28 09:23 | 24.49328 | 54.56633 | 2419 ft | 236 kts | 309° |
| 2026-04-28 09:24 | 24.50331 | 54.55210 | 3193 ft | 237 kts | 310° |
| 2026-04-28 09:24 | 24.51345 | 54.53771 | 3931 ft | 239 kts | 310° |
| 2026-04-28 09:24 | 24.52386 | 54.52335 | 4690 ft | 241 kts | 309° |
| 2026-04-28 09:24 | 24.53434 | 54.50882 | 5412 ft | 244 kts | 309° |
| 2026-04-28 09:25 | 24.54473 | 54.49395 | 6130 ft | 247 kts | 307° |
| 2026-04-28 09:25 | 24.55546 | 54.47890 | 6741 ft | 253 kts | 308° |
| 2026-04-28 09:25 | 24.56625 | 54.46363 | 7460 ft | 254 kts | 307° |
| 2026-04-28 09:25 | 24.57711 | 54.44811 | 8184 ft | 257 kts | 307° |
| 2026-04-28 09:26 | 24.58818 | 54.43253 | 8806 ft | 261 kts | 312° |
| 2026-04-28 09:26 | 24.60323 | 54.42122 | 9212 ft | 268 kts | 340° |
| 2026-04-28 09:26 | 24.62171 | 54.41923 | 10000 ft | 271 kts | 7° |
| 2026-04-28 09:26 | 24.63954 | 54.42641 | 10656 ft | 278 kts | 27° |
| 2026-04-28 09:27 | 24.67270 | 54.44967 | 11948 ft | 287 kts | 31° |
| 2026-04-28 09:27 | 24.68962 | 54.46161 | 12620 ft | 291 kts | 30° |
| 2026-04-28 09:27 | 24.70625 | 54.47513 | 12973 ft | 310 kts | 45° |
| 2026-04-28 09:28 | 24.71811 | 54.49578 | 13163 ft | 332 kts | 69° |
| 2026-04-28 09:28 | 24.72222 | 54.52133 | 13340 ft | 351 kts | 91° |
| 2026-04-28 09:28 | 24.71743 | 54.54814 | 13513 ft | 367 kts | 113° |
| 2026-04-28 09:28 | 24.70413 | 54.57246 | 13823 ft | 376 kts | 130° |
| 2026-04-28 09:29 | 24.68743 | 54.59473 | 14362 ft | 379 kts | 130° |
| 2026-04-28 09:29 | 24.67141 | 54.61806 | 14902 ft | 384 kts | 127° |
| 2026-04-28 09:29 | 24.65677 | 54.64281 | 15439 ft | 389 kts | 123° |
| 2026-04-28 09:29 | 24.64306 | 54.66862 | 15961 ft | 393 kts | 121° |
| 2026-04-28 09:30 | 24.62976 | 54.69509 | 16456 ft | 398 kts | 121° |
| 2026-04-28 09:30 | 24.61651 | 54.72201 | 16969 ft | 402 kts | 120° |
| 2026-04-28 09:30 | 24.60317 | 54.74918 | 17469 ft | 406 kts | 121° |
| 2026-04-28 09:30 | 24.58967 | 54.77662 | 18003 ft | 409 kts | 121° |
| 2026-04-28 09:31 | 24.57604 | 54.80424 | 18450 ft | 413 kts | 121° |
| 2026-04-28 09:31 | 24.56248 | 54.83164 | 18907 ft | 415 kts | 121° |
| 2026-04-28 09:31 | 24.54865 | 54.85955 | 19377 ft | 417 kts | 121° |
| 2026-04-28 09:31 | 24.53473 | 54.88762 | 19814 ft | 420 kts | 121° |
| 2026-04-28 09:32 | 24.52073 | 54.91584 | 20265 ft | 422 kts | 121° |
| 2026-04-28 09:32 | 24.50665 | 54.94422 | 20704 ft | 425 kts | 121° |
| 2026-04-28 09:32 | 24.49244 | 54.97283 | 21139 ft | 427 kts | 121° |
| 2026-04-28 09:32 | 24.47818 | 55.00152 | 21579 ft | 430 kts | 121° |
| 2026-04-28 09:33 | 24.46380 | 55.03043 | 22040 ft | 432 kts | 121° |
| 2026-04-28 09:33 | 24.44935 | 55.05948 | 22466 ft | 435 kts | 121° |
| 2026-04-28 09:33 | 24.43481 | 55.08869 | 22874 ft | 438 kts | 122° |
| 2026-04-28 09:33 | 24.42017 | 55.11807 | 23295 ft | 440 kts | 122° |
| 2026-04-28 09:34 | 24.40542 | 55.14763 | 23631 ft | 444 kts | 121° |
| 2026-04-28 09:34 | 24.39056 | 55.17742 | 23971 ft | 447 kts | 121° |
| 2026-04-28 09:34 | 24.37559 | 55.20743 | 24311 ft | 449 kts | 122° |
| 2026-04-28 09:34 | 24.36053 | 55.23759 | 24648 ft | 452 kts | 122° |
| 2026-04-28 09:35 | 24.34534 | 55.26797 | 24996 ft | 455 kts | 122° |
| 2026-04-28 09:35 | 24.33006 | 55.29853 | 25300 ft | 459 kts | 122° |
| 2026-04-28 09:35 | 24.31466 | 55.32930 | 25673 ft | 461 kts | 122° |
| 2026-04-28 09:35 | 24.29917 | 55.36023 | 26011 ft | 465 kts | 122° |
| 2026-04-28 09:36 | 24.28356 | 55.39138 | 26366 ft | 468 kts | 122° |
| 2026-04-28 09:36 | 24.26781 | 55.42280 | 26734 ft | 471 kts | 122° |
| 2026-04-28 09:36 | 24.25197 | 55.45436 | 27125 ft | 475 kts | 123° |
| 2026-04-28 09:36 | 24.23598 | 55.48621 | 27516 ft | 478 kts | 122° |
| 2026-04-28 09:37 | 24.21990 | 55.51821 | 27918 ft | 481 kts | 123° |
| 2026-04-28 09:37 | 24.20368 | 55.55048 | 28276 ft | 486 kts | 123° |
| 2026-04-28 09:37 | 24.18730 | 55.58302 | 28707 ft | 490 kts | 123° |
| 2026-04-28 09:37 | 24.17080 | 55.61580 | 29131 ft | 493 kts | 123° |
| 2026-04-28 09:38 | 24.15417 | 55.64881 | 29556 ft | 497 kts | 123° |
| 2026-04-28 09:38 | 24.13738 | 55.68213 | 29964 ft | 501 kts | 123° |
| 2026-04-28 09:38 | 24.12047 | 55.71564 | 30313 ft | 505 kts | 123° |
| 2026-04-28 09:38 | 24.10340 | 55.74945 | 30646 ft | 510 kts | 123° |
| 2026-04-28 09:39 | 24.08617 | 55.78356 | 30979 ft | 514 kts | 122° |
| 2026-04-28 09:39 | 24.06879 | 55.81794 | 31324 ft | 518 kts | 122° |
| 2026-04-28 09:39 | 24.05722 | 55.84083 | 31555 ft | 521 kts | 122° |
| 2026-04-28 09:39 | 24.03363 | 55.88743 | 31981 ft | 526 kts | 122° |
| 2026-04-28 09:40 | 24.02185 | 55.91069 | 32214 ft | 529 kts | 121° |
| 2026-04-28 09:40 | 24.00397 | 55.94598 | 32526 ft | 533 kts | 121° |
| 2026-04-28 09:40 | 23.98593 | 55.98154 | 32848 ft | 536 kts | 121° |
| 2026-04-28 09:40 | 23.96184 | 56.02901 | 33273 ft | 542 kts | 121° |